sensor_id;sensor_type;location;lat;lon;timestamp;P1;durP1;ratioP1;P2;durP2;ratioP2
10801;SDS011;5453;50.852;7.102;2023-02-01T00:00:09;12.68;;;5.65;;
10801;SDS011;5453;50.852;7.102;2023-02-01T00:02:44;12.50;;;5.43;;
10801;SDS011;5453;50.852;7.102;2023-02-01T00:05:16;8.98;;;4.90;;
10801;SDS011;5453;50.852;7.102;2023-02-01T00:07:48;12.57;;;4.75;;
10801;SDS011;5453;50.852;7.102;2023-02-01T00:10:20;13.48;;;4.20;;
10801;SDS011;5453;50.852;7.102;2023-02-01T00:12:52;9.52;;;4.75;;
10801;SDS011;5453;50.852;7.102;2023-02-01T00:15:24;10.68;;;3.90;;
10801;SDS011;5453;50.852;7.102;2023-02-01T00:17:58;6.75;;;3.53;;
10801;SDS011;5453;50.852;7.102;2023-02-01T00:20:30;9.77;;;3.67;;
10801;SDS011;5453;50.852;7.102;2023-02-01T00:23:02;9.00;;;3.58;;
10801;SDS011;5453;50.852;7.102;2023-02-01T00:25:34;7.88;;;3.53;;
10801;SDS011;5453;50.852;7.102;2023-02-01T00:28:06;8.27;;;4.20;;
10801;SDS011;5453;50.852;7.102;2023-02-01T00:30:38;8.23;;;3.60;;
10801;SDS011;5453;50.852;7.102;2023-02-01T00:33:11;8.02;;;3.35;;
10801;SDS011;5453;50.852;7.102;2023-02-01T00:35:44;6.40;;;3.03;;
10801;SDS011;5453;50.852;7.102;2023-02-01T00:38:16;6.55;;;3.05;;
10801;SDS011;5453;50.852;7.102;2023-02-01T00:40:48;8.68;;;3.45;;
10801;SDS011;5453;50.852;7.102;2023-02-01T00:43:20;8.80;;;3.35;;
10801;SDS011;5453;50.852;7.102;2023-02-01T00:45:52;8.90;;;3.35;;
10801;SDS011;5453;50.852;7.102;2023-02-01T00:48:25;13.70;;;3.30;;
10801;SDS011;5453;50.852;7.102;2023-02-01T00:50:58;10.98;;;3.53;;
10801;SDS011;5453;50.852;7.102;2023-02-01T00:53:31;8.25;;;3.33;;
10801;SDS011;5453;50.852;7.102;2023-02-01T00:56:04;6.80;;;3.13;;
10801;SDS011;5453;50.852;7.102;2023-02-01T00:58:37;10.38;;;3.67;;
10801;SDS011;5453;50.852;7.102;2023-02-01T01:01:11;6.28;;;3.17;;
10801;SDS011;5453;50.852;7.102;2023-02-01T01:03:47;6.90;;;2.92;;
10801;SDS011;5453;50.852;7.102;2023-02-01T01:06:22;6.60;;;2.83;;
10801;SDS011;5453;50.852;7.102;2023-02-01T01:08:57;9.85;;;3.00;;
10801;SDS011;5453;50.852;7.102;2023-02-01T01:11:33;4.95;;;2.45;;
10801;SDS011;5453;50.852;7.102;2023-02-01T01:14:09;7.70;;;3.13;;
10801;SDS011;5453;50.852;7.102;2023-02-01T01:16:42;6.25;;;3.00;;
10801;SDS011;5453;50.852;7.102;2023-02-01T01:19:15;4.63;;;1.88;;
10801;SDS011;5453;50.852;7.102;2023-02-01T01:21:48;7.03;;;2.60;;
10801;SDS011;5453;50.852;7.102;2023-02-01T01:24:20;7.82;;;2.35;;
10801;SDS011;5453;50.852;7.102;2023-02-01T01:26:53;7.38;;;2.33;;
10801;SDS011;5453;50.852;7.102;2023-02-01T01:29:25;9.15;;;2.80;;
10801;SDS011;5453;50.852;7.102;2023-02-01T01:31:57;6.68;;;2.70;;
10801;SDS011;5453;50.852;7.102;2023-02-01T01:34:31;8.02;;;2.63;;
10801;SDS011;5453;50.852;7.102;2023-02-01T01:37:03;13.63;;;3.20;;
10801;SDS011;5453;50.852;7.102;2023-02-01T01:39:35;10.60;;;2.92;;
10801;SDS011;5453;50.852;7.102;2023-02-01T01:42:08;9.25;;;2.90;;
10801;SDS011;5453;50.852;7.102;2023-02-01T01:44:56;9.48;;;3.20;;
10801;SDS011;5453;50.852;7.102;2023-02-01T01:47:35;10.63;;;2.50;;
10801;SDS011;5453;50.852;7.102;2023-02-01T01:50:13;10.43;;;3.25;;
10801;SDS011;5453;50.852;7.102;2023-02-01T01:52:50;10.13;;;2.83;;
10801;SDS011;5453;50.852;7.102;2023-02-01T01:55:26;10.60;;;2.63;;
10801;SDS011;5453;50.852;7.102;2023-02-01T01:58:03;12.55;;;2.70;;
10801;SDS011;5453;50.852;7.102;2023-02-01T02:00:38;6.60;;;2.22;;
10801;SDS011;5453;50.852;7.102;2023-02-01T02:03:13;6.93;;;2.17;;
10801;SDS011;5453;50.852;7.102;2023-02-01T02:05:50;6.05;;;1.83;;
10801;SDS011;5453;50.852;7.102;2023-02-01T02:08:25;5.22;;;1.92;;
10801;SDS011;5453;50.852;7.102;2023-02-01T02:10:59;5.35;;;2.28;;
10801;SDS011;5453;50.852;7.102;2023-02-01T02:13:32;6.60;;;2.33;;
10801;SDS011;5453;50.852;7.102;2023-02-01T02:16:18;6.32;;;2.03;;
10801;SDS011;5453;50.852;7.102;2023-02-01T02:19:16;4.65;;;2.20;;
10801;SDS011;5453;50.852;7.102;2023-02-01T02:25:35;5.43;;;2.10;;
10801;SDS011;5453;50.852;7.102;2023-02-01T02:28:42;9.38;;;2.67;;
10801;SDS011;5453;50.852;7.102;2023-02-01T02:35:18;11.15;;;2.90;;
10801;SDS011;5453;50.852;7.102;2023-02-01T02:38:03;8.10;;;2.60;;
10801;SDS011;5453;50.852;7.102;2023-02-01T02:40:47;11.05;;;2.80;;
10801;SDS011;5453;50.852;7.102;2023-02-01T02:43:28;8.70;;;3.03;;
10801;SDS011;5453;50.852;7.102;2023-02-01T02:46:27;8.18;;;3.05;;
10801;SDS011;5453;50.852;7.102;2023-02-01T02:49:25;10.93;;;3.20;;
10801;SDS011;5453;50.852;7.102;2023-02-01T02:52:09;11.85;;;2.95;;
10801;SDS011;5453;50.852;7.102;2023-02-01T02:55:16;10.45;;;3.28;;
10801;SDS011;5453;50.852;7.102;2023-02-01T02:57:50;7.97;;;3.40;;
10801;SDS011;5453;50.852;7.102;2023-02-01T03:00:41;8.07;;;2.72;;
10801;SDS011;5453;50.852;7.102;2023-02-01T03:03:35;11.57;;;3.58;;
10801;SDS011;5453;50.852;7.102;2023-02-01T03:06:26;7.07;;;3.35;;
10801;SDS011;5453;50.852;7.102;2023-02-01T03:09:01;18.35;;;3.35;;
10801;SDS011;5453;50.852;7.102;2023-02-01T03:11:37;9.73;;;3.17;;
10801;SDS011;5453;50.852;7.102;2023-02-01T03:14:28;7.05;;;2.50;;
10801;SDS011;5453;50.852;7.102;2023-02-01T03:17:02;11.48;;;3.50;;
10801;SDS011;5453;50.852;7.102;2023-02-01T03:19:42;11.30;;;3.00;;
10801;SDS011;5453;50.852;7.102;2023-02-01T03:22:20;9.23;;;3.00;;
10801;SDS011;5453;50.852;7.102;2023-02-01T03:24:58;9.77;;;2.95;;
10801;SDS011;5453;50.852;7.102;2023-02-01T03:27:35;8.55;;;3.10;;
10801;SDS011;5453;50.852;7.102;2023-02-01T03:30:16;10.68;;;2.97;;
10801;SDS011;5453;50.852;7.102;2023-02-01T03:32:54;10.82;;;3.03;;
10801;SDS011;5453;50.852;7.102;2023-02-01T03:35:33;10.07;;;3.17;;
10801;SDS011;5453;50.852;7.102;2023-02-01T03:38:13;9.52;;;2.92;;
10801;SDS011;5453;50.852;7.102;2023-02-01T03:40:55;8.80;;;2.45;;
10801;SDS011;5453;50.852;7.102;2023-02-01T03:43:36;7.78;;;2.70;;
10801;SDS011;5453;50.852;7.102;2023-02-01T03:46:21;8.68;;;2.80;;
10801;SDS011;5453;50.852;7.102;2023-02-01T03:49:04;13.32;;;3.20;;
10801;SDS011;5453;50.852;7.102;2023-02-01T03:51:40;9.45;;;3.53;;
10801;SDS011;5453;50.852;7.102;2023-02-01T03:54:13;15.68;;;3.15;;
10801;SDS011;5453;50.852;7.102;2023-02-01T03:56:48;6.53;;;3.28;;
10801;SDS011;5453;50.852;7.102;2023-02-01T03:59:23;10.15;;;3.15;;
10801;SDS011;5453;50.852;7.102;2023-02-01T04:01:55;7.60;;;2.60;;
10801;SDS011;5453;50.852;7.102;2023-02-01T04:04:28;13.45;;;3.17;;
10801;SDS011;5453;50.852;7.102;2023-02-01T04:07:00;10.98;;;3.10;;
10801;SDS011;5453;50.852;7.102;2023-02-01T04:09:33;10.25;;;3.42;;
10801;SDS011;5453;50.852;7.102;2023-02-01T04:12:06;11.13;;;2.70;;
10801;SDS011;5453;50.852;7.102;2023-02-01T04:14:38;12.02;;;2.85;;
10801;SDS011;5453;50.852;7.102;2023-02-01T04:17:11;9.02;;;2.70;;
10801;SDS011;5453;50.852;7.102;2023-02-01T04:19:43;9.88;;;2.85;;
10801;SDS011;5453;50.852;7.102;2023-02-01T04:22:15;13.32;;;3.08;;
10801;SDS011;5453;50.852;7.102;2023-02-01T04:24:47;9.77;;;2.90;;
10801;SDS011;5453;50.852;7.102;2023-02-01T04:27:21;10.02;;;3.22;;
10801;SDS011;5453;50.852;7.102;2023-02-01T04:29:53;10.88;;;2.97;;
10801;SDS011;5453;50.852;7.102;2023-02-01T04:32:25;12.35;;;2.85;;
10801;SDS011;5453;50.852;7.102;2023-02-01T04:34:58;6.53;;;2.75;;
10801;SDS011;5453;50.852;7.102;2023-02-01T04:37:30;11.70;;;3.40;;
10801;SDS011;5453;50.852;7.102;2023-02-01T04:40:02;11.93;;;3.03;;
10801;SDS011;5453;50.852;7.102;2023-02-01T04:42:37;11.10;;;3.10;;
10801;SDS011;5453;50.852;7.102;2023-02-01T04:45:09;13.65;;;3.13;;
10801;SDS011;5453;50.852;7.102;2023-02-01T04:47:42;8.25;;;2.75;;
10801;SDS011;5453;50.852;7.102;2023-02-01T04:50:14;9.32;;;3.15;;
10801;SDS011;5453;50.852;7.102;2023-02-01T04:52:47;12.38;;;3.28;;
10801;SDS011;5453;50.852;7.102;2023-02-01T04:55:19;10.10;;;3.28;;
10801;SDS011;5453;50.852;7.102;2023-02-01T04:57:52;8.20;;;2.83;;
10801;SDS011;5453;50.852;7.102;2023-02-01T05:00:25;9.00;;;2.28;;
10801;SDS011;5453;50.852;7.102;2023-02-01T05:02:57;10.27;;;2.33;;
10801;SDS011;5453;50.852;7.102;2023-02-01T05:05:29;10.77;;;3.03;;
10801;SDS011;5453;50.852;7.102;2023-02-01T05:08:01;11.65;;;3.20;;
10801;SDS011;5453;50.852;7.102;2023-02-01T05:10:34;9.73;;;3.05;;
10801;SDS011;5453;50.852;7.102;2023-02-01T05:13:08;6.85;;;2.17;;
10801;SDS011;5453;50.852;7.102;2023-02-01T05:15:59;8.30;;;2.63;;
10801;SDS011;5453;50.852;7.102;2023-02-01T05:18:31;16.75;;;3.25;;
10801;SDS011;5453;50.852;7.102;2023-02-01T05:21:03;9.18;;;2.70;;
10801;SDS011;5453;50.852;7.102;2023-02-01T05:23:37;9.15;;;2.60;;
10801;SDS011;5453;50.852;7.102;2023-02-01T05:26:23;8.75;;;2.63;;
10801;SDS011;5453;50.852;7.102;2023-02-01T05:28:57;9.18;;;2.47;;
10801;SDS011;5453;50.852;7.102;2023-02-01T05:31:29;11.35;;;2.55;;
10801;SDS011;5453;50.852;7.102;2023-02-01T05:34:02;8.82;;;2.47;;
10801;SDS011;5453;50.852;7.102;2023-02-01T05:36:34;8.55;;;2.50;;
10801;SDS011;5453;50.852;7.102;2023-02-01T05:39:06;8.18;;;2.30;;
10801;SDS011;5453;50.852;7.102;2023-02-01T05:41:38;12.20;;;2.42;;
10801;SDS011;5453;50.852;7.102;2023-02-01T05:44:12;13.27;;;2.95;;
10801;SDS011;5453;50.852;7.102;2023-02-01T05:46:45;12.32;;;2.53;;
10801;SDS011;5453;50.852;7.102;2023-02-01T05:49:17;9.77;;;2.30;;
10801;SDS011;5453;50.852;7.102;2023-02-01T05:51:50;6.85;;;1.95;;
10801;SDS011;5453;50.852;7.102;2023-02-01T05:54:23;10.50;;;2.05;;
10801;SDS011;5453;50.852;7.102;2023-02-01T05:56:56;8.35;;;2.08;;
10801;SDS011;5453;50.852;7.102;2023-02-01T05:59:32;15.00;;;3.40;;
10801;SDS011;5453;50.852;7.102;2023-02-01T06:02:06;13.32;;;2.80;;
10801;SDS011;5453;50.852;7.102;2023-02-01T06:04:40;9.93;;;2.33;;
10801;SDS011;5453;50.852;7.102;2023-02-01T06:07:12;8.88;;;2.45;;
10801;SDS011;5453;50.852;7.102;2023-02-01T06:09:44;8.15;;;2.25;;
10801;SDS011;5453;50.852;7.102;2023-02-01T06:12:18;9.20;;;2.70;;
10801;SDS011;5453;50.852;7.102;2023-02-01T06:14:55;9.43;;;2.28;;
10801;SDS011;5453;50.852;7.102;2023-02-01T06:17:28;11.45;;;2.20;;
10801;SDS011;5453;50.852;7.102;2023-02-01T06:20:01;5.45;;;1.75;;
10801;SDS011;5453;50.852;7.102;2023-02-01T06:22:36;7.35;;;2.00;;
10801;SDS011;5453;50.852;7.102;2023-02-01T06:25:10;9.55;;;2.08;;
10801;SDS011;5453;50.852;7.102;2023-02-01T06:27:42;9.18;;;1.92;;
10801;SDS011;5453;50.852;7.102;2023-02-01T06:30:16;11.27;;;2.13;;
10801;SDS011;5453;50.852;7.102;2023-02-01T06:32:50;16.58;;;2.72;;
10801;SDS011;5453;50.852;7.102;2023-02-01T06:35:24;12.20;;;2.25;;
10801;SDS011;5453;50.852;7.102;2023-02-01T06:37:56;7.50;;;1.90;;
10801;SDS011;5453;50.852;7.102;2023-02-01T06:40:28;13.57;;;2.67;;
10801;SDS011;5453;50.852;7.102;2023-02-01T06:43:01;12.60;;;1.70;;
10801;SDS011;5453;50.852;7.102;2023-02-01T06:45:34;11.00;;;2.08;;
10801;SDS011;5453;50.852;7.102;2023-02-01T06:48:09;8.57;;;2.47;;
10801;SDS011;5453;50.852;7.102;2023-02-01T06:50:41;10.00;;;2.10;;
10801;SDS011;5453;50.852;7.102;2023-02-01T06:53:13;8.90;;;2.40;;
10801;SDS011;5453;50.852;7.102;2023-02-01T06:55:53;9.27;;;2.00;;
10801;SDS011;5453;50.852;7.102;2023-02-01T06:58:28;11.15;;;1.95;;
10801;SDS011;5453;50.852;7.102;2023-02-01T07:01:05;7.90;;;2.00;;
10801;SDS011;5453;50.852;7.102;2023-02-01T07:03:39;14.77;;;2.40;;
10801;SDS011;5453;50.852;7.102;2023-02-01T07:06:12;12.32;;;2.72;;
10801;SDS011;5453;50.852;7.102;2023-02-01T07:08:44;11.38;;;2.40;;
10801;SDS011;5453;50.852;7.102;2023-02-01T07:11:17;9.32;;;1.88;;
10801;SDS011;5453;50.852;7.102;2023-02-01T07:13:50;9.43;;;2.15;;
10801;SDS011;5453;50.852;7.102;2023-02-01T07:16:23;13.45;;;2.25;;
10801;SDS011;5453;50.852;7.102;2023-02-01T07:18:55;10.68;;;2.10;;
10801;SDS011;5453;50.852;7.102;2023-02-01T07:21:29;13.63;;;2.53;;
10801;SDS011;5453;50.852;7.102;2023-02-01T07:24:01;13.50;;;2.97;;
10801;SDS011;5453;50.852;7.102;2023-02-01T07:26:34;12.20;;;2.60;;
10801;SDS011;5453;50.852;7.102;2023-02-01T07:29:06;8.02;;;2.22;;
10801;SDS011;5453;50.852;7.102;2023-02-01T07:31:40;20.00;;;3.03;;
10801;SDS011;5453;50.852;7.102;2023-02-01T07:34:12;8.30;;;2.08;;
10801;SDS011;5453;50.852;7.102;2023-02-01T07:36:44;12.45;;;2.85;;
10801;SDS011;5453;50.852;7.102;2023-02-01T07:39:16;14.18;;;3.58;;
10801;SDS011;5453;50.852;7.102;2023-02-01T07:41:48;10.63;;;3.03;;
10801;SDS011;5453;50.852;7.102;2023-02-01T07:44:21;14.85;;;2.67;;
10801;SDS011;5453;50.852;7.102;2023-02-01T07:46:55;7.78;;;2.60;;
10801;SDS011;5453;50.852;7.102;2023-02-01T07:49:27;6.47;;;2.13;;
10801;SDS011;5453;50.852;7.102;2023-02-01T07:51:59;16.70;;;3.38;;
10801;SDS011;5453;50.852;7.102;2023-02-01T07:54:31;12.27;;;2.97;;
10801;SDS011;5453;50.852;7.102;2023-02-01T07:57:03;7.03;;;2.30;;
10801;SDS011;5453;50.852;7.102;2023-02-01T07:59:35;9.55;;;2.75;;
10801;SDS011;5453;50.852;7.102;2023-02-01T08:02:30;12.85;;;2.85;;
10801;SDS011;5453;50.852;7.102;2023-02-01T08:05:03;13.13;;;3.15;;
10801;SDS011;5453;50.852;7.102;2023-02-01T08:07:36;11.93;;;2.40;;
10801;SDS011;5453;50.852;7.102;2023-02-01T08:10:08;9.38;;;2.22;;
10801;SDS011;5453;50.852;7.102;2023-02-01T08:12:41;11.85;;;2.58;;
10801;SDS011;5453;50.852;7.102;2023-02-01T08:15:17;12.20;;;2.47;;
10801;SDS011;5453;50.852;7.102;2023-02-01T08:17:51;9.25;;;2.97;;
10801;SDS011;5453;50.852;7.102;2023-02-01T08:20:24;17.80;;;2.58;;
10801;SDS011;5453;50.852;7.102;2023-02-01T08:22:57;11.85;;;2.30;;
10801;SDS011;5453;50.852;7.102;2023-02-01T08:25:29;12.65;;;2.58;;
10801;SDS011;5453;50.852;7.102;2023-02-01T08:28:02;12.75;;;2.45;;
10801;SDS011;5453;50.852;7.102;2023-02-01T08:30:34;9.55;;;2.63;;
10801;SDS011;5453;50.852;7.102;2023-02-01T08:33:10;15.18;;;2.97;;
10801;SDS011;5453;50.852;7.102;2023-02-01T08:35:42;10.07;;;2.65;;
10801;SDS011;5453;50.852;7.102;2023-02-01T08:38:14;11.35;;;2.90;;
10801;SDS011;5453;50.852;7.102;2023-02-01T08:40:46;10.77;;;2.83;;
10801;SDS011;5453;50.852;7.102;2023-02-01T08:43:18;16.10;;;3.72;;
10801;SDS011;5453;50.852;7.102;2023-02-01T08:45:50;12.57;;;2.90;;
10801;SDS011;5453;50.852;7.102;2023-02-01T08:48:28;11.60;;;2.70;;
10801;SDS011;5453;50.852;7.102;2023-02-01T08:51:00;10.75;;;2.67;;
10801;SDS011;5453;50.852;7.102;2023-02-01T08:53:34;15.93;;;3.10;;
10801;SDS011;5453;50.852;7.102;2023-02-01T08:56:06;14.07;;;2.53;;
10801;SDS011;5453;50.852;7.102;2023-02-01T08:58:40;12.98;;;2.55;;
10801;SDS011;5453;50.852;7.102;2023-02-01T09:01:13;14.75;;;2.90;;
10801;SDS011;5453;50.852;7.102;2023-02-01T09:03:48;9.80;;;2.42;;
10801;SDS011;5453;50.852;7.102;2023-02-01T09:06:20;20.20;;;4.18;;
10801;SDS011;5453;50.852;7.102;2023-02-01T09:08:52;9.85;;;2.92;;
10801;SDS011;5453;50.852;7.102;2023-02-01T09:11:24;12.25;;;2.85;;
10801;SDS011;5453;50.852;7.102;2023-02-01T09:13:56;9.77;;;2.72;;
10801;SDS011;5453;50.852;7.102;2023-02-01T09:16:28;8.60;;;2.00;;
10801;SDS011;5453;50.852;7.102;2023-02-01T09:19:02;11.18;;;2.17;;
10801;SDS011;5453;50.852;7.102;2023-02-01T09:21:34;12.57;;;2.70;;
10801;SDS011;5453;50.852;7.102;2023-02-01T09:24:06;10.52;;;2.17;;
10801;SDS011;5453;50.852;7.102;2023-02-01T09:26:41;9.45;;;2.10;;
10801;SDS011;5453;50.852;7.102;2023-02-01T09:29:13;12.10;;;2.28;;
10801;SDS011;5453;50.852;7.102;2023-02-01T09:31:45;12.88;;;2.13;;
10801;SDS011;5453;50.852;7.102;2023-02-01T09:34:18;15.63;;;2.45;;
10801;SDS011;5453;50.852;7.102;2023-02-01T09:36:51;10.52;;;2.28;;
10801;SDS011;5453;50.852;7.102;2023-02-01T09:39:23;11.63;;;2.90;;
10801;SDS011;5453;50.852;7.102;2023-02-01T09:41:57;11.25;;;2.53;;
10801;SDS011;5453;50.852;7.102;2023-02-01T09:44:48;11.63;;;2.58;;
10801;SDS011;5453;50.852;7.102;2023-02-01T09:47:50;11.07;;;2.33;;
10801;SDS011;5453;50.852;7.102;2023-02-01T09:50:30;12.02;;;2.22;;
10801;SDS011;5453;50.852;7.102;2023-02-01T09:53:10;10.23;;;2.28;;
10801;SDS011;5453;50.852;7.102;2023-02-01T09:55:47;9.57;;;2.08;;
10801;SDS011;5453;50.852;7.102;2023-02-01T09:58:22;11.10;;;2.50;;
10801;SDS011;5453;50.852;7.102;2023-02-01T10:01:01;10.52;;;2.95;;
10801;SDS011;5453;50.852;7.102;2023-02-01T10:03:35;8.63;;;2.92;;
10801;SDS011;5453;50.852;7.102;2023-02-01T10:06:15;7.93;;;2.05;;
10801;SDS011;5453;50.852;7.102;2023-02-01T10:09:07;11.00;;;2.83;;
10801;SDS011;5453;50.852;7.102;2023-02-01T10:12:04;8.38;;;2.03;;
10801;SDS011;5453;50.852;7.102;2023-02-01T10:18:20;9.52;;;2.35;;
10801;SDS011;5453;50.852;7.102;2023-02-01T10:21:09;11.48;;;2.58;;
10801;SDS011;5453;50.852;7.102;2023-02-01T10:24:02;8.82;;;2.40;;
10801;SDS011;5453;50.852;7.102;2023-02-01T10:26:59;11.65;;;2.42;;
10801;SDS011;5453;50.852;7.102;2023-02-01T10:29:40;8.80;;;2.42;;
10801;SDS011;5453;50.852;7.102;2023-02-01T10:32:19;13.68;;;2.63;;
10801;SDS011;5453;50.852;7.102;2023-02-01T10:34:55;11.38;;;2.17;;
10801;SDS011;5453;50.852;7.102;2023-02-01T10:37:32;10.27;;;2.00;;
10801;SDS011;5453;50.852;7.102;2023-02-01T10:40:10;9.52;;;1.83;;
10801;SDS011;5453;50.852;7.102;2023-02-01T10:42:48;12.68;;;2.13;;
10801;SDS011;5453;50.852;7.102;2023-02-01T10:45:22;14.10;;;2.00;;
10801;SDS011;5453;50.852;7.102;2023-02-01T10:47:58;11.98;;;2.40;;
10801;SDS011;5453;50.852;7.102;2023-02-01T10:50:34;6.15;;;1.58;;
10801;SDS011;5453;50.852;7.102;2023-02-01T10:53:13;10.25;;;2.03;;
10801;SDS011;5453;50.852;7.102;2023-02-01T10:55:50;7.80;;;1.80;;
10801;SDS011;5453;50.852;7.102;2023-02-01T10:58:26;9.52;;;2.88;;
10801;SDS011;5453;50.852;7.102;2023-02-01T11:01:03;12.95;;;2.38;;
10801;SDS011;5453;50.852;7.102;2023-02-01T11:06:22;16.10;;;2.55;;
10801;SDS011;5453;50.852;7.102;2023-02-01T11:09:08;8.30;;;2.25;;
10801;SDS011;5453;50.852;7.102;2023-02-01T11:11:55;9.25;;;1.90;;
10801;SDS011;5453;50.852;7.102;2023-02-01T11:14:34;10.48;;;2.03;;
10801;SDS011;5453;50.852;7.102;2023-02-01T11:17:17;9.05;;;1.95;;
10801;SDS011;5453;50.852;7.102;2023-02-01T11:19:59;12.00;;;2.53;;
10801;SDS011;5453;50.852;7.102;2023-02-01T11:22:32;12.55;;;2.47;;
10801;SDS011;5453;50.852;7.102;2023-02-01T11:25:08;15.93;;;2.35;;
10801;SDS011;5453;50.852;7.102;2023-02-01T11:27:42;9.95;;;2.00;;
10801;SDS011;5453;50.852;7.102;2023-02-01T11:30:16;5.28;;;2.25;;
10801;SDS011;5453;50.852;7.102;2023-02-01T11:32:59;10.50;;;2.25;;
10801;SDS011;5453;50.852;7.102;2023-02-01T11:35:33;16.55;;;2.78;;
10801;SDS011;5453;50.852;7.102;2023-02-01T11:38:17;10.63;;;3.13;;
10801;SDS011;5453;50.852;7.102;2023-02-01T11:40:54;10.85;;;2.42;;
10801;SDS011;5453;50.852;7.102;2023-02-01T11:43:28;9.15;;;2.40;;
10801;SDS011;5453;50.852;7.102;2023-02-01T11:46:00;8.77;;;2.53;;
10801;SDS011;5453;50.852;7.102;2023-02-01T11:48:34;10.15;;;2.40;;
10801;SDS011;5453;50.852;7.102;2023-02-01T11:51:16;8.20;;;2.58;;
10801;SDS011;5453;50.852;7.102;2023-02-01T11:54:13;10.52;;;2.22;;
10801;SDS011;5453;50.852;7.102;2023-02-01T11:57:10;7.55;;;2.03;;
10801;SDS011;5453;50.852;7.102;2023-02-01T12:00:00;9.48;;;2.38;;
10801;SDS011;5453;50.852;7.102;2023-02-01T12:02:57;8.23;;;2.03;;
10801;SDS011;5453;50.852;7.102;2023-02-01T12:06:07;9.15;;;2.35;;
10801;SDS011;5453;50.852;7.102;2023-02-01T12:08:52;9.50;;;2.22;;
10801;SDS011;5453;50.852;7.102;2023-02-01T12:11:43;9.13;;;2.20;;
10801;SDS011;5453;50.852;7.102;2023-02-01T12:14:36;7.75;;;2.08;;
10801;SDS011;5453;50.852;7.102;2023-02-01T12:17:28;14.23;;;2.55;;
10801;SDS011;5453;50.852;7.102;2023-02-01T12:20:34;11.23;;;2.50;;
10801;SDS011;5453;50.852;7.102;2023-02-01T12:23:45;8.60;;;2.10;;
10801;SDS011;5453;50.852;7.102;2023-02-01T12:26:35;10.27;;;2.03;;
10801;SDS011;5453;50.852;7.102;2023-02-01T12:32:22;7.68;;;1.67;;
10801;SDS011;5453;50.852;7.102;2023-02-01T12:35:13;5.80;;;1.98;;
10801;SDS011;5453;50.852;7.102;2023-02-01T12:38:11;7.85;;;1.65;;
10801;SDS011;5453;50.852;7.102;2023-02-01T12:41:00;10.68;;;2.40;;
10801;SDS011;5453;50.852;7.102;2023-02-01T12:43:47;7.70;;;1.92;;
10801;SDS011;5453;50.852;7.102;2023-02-01T12:46:27;8.48;;;2.30;;
10801;SDS011;5453;50.852;7.102;2023-02-01T12:49:04;10.65;;;2.10;;
10801;SDS011;5453;50.852;7.102;2023-02-01T12:51:45;13.73;;;2.85;;
10801;SDS011;5453;50.852;7.102;2023-02-01T12:54:21;9.57;;;2.15;;
10801;SDS011;5453;50.852;7.102;2023-02-01T12:57:04;11.93;;;2.38;;
10801;SDS011;5453;50.852;7.102;2023-02-01T12:59:44;9.80;;;2.20;;
10801;SDS011;5453;50.852;7.102;2023-02-01T13:02:27;7.25;;;2.03;;
10801;SDS011;5453;50.852;7.102;2023-02-01T13:05:13;7.55;;;2.42;;
10801;SDS011;5453;50.852;7.102;2023-02-01T13:07:50;19.98;;;5.22;;
10801;SDS011;5453;50.852;7.102;2023-02-01T13:10:30;9.73;;;3.00;;
10801;SDS011;5453;50.852;7.102;2023-02-01T13:13:08;6.25;;;1.80;;
10801;SDS011;5453;50.852;7.102;2023-02-01T13:15:48;12.50;;;2.70;;
10801;SDS011;5453;50.852;7.102;2023-02-01T13:18:32;7.40;;;1.85;;
10801;SDS011;5453;50.852;7.102;2023-02-01T13:21:08;9.40;;;2.30;;
10801;SDS011;5453;50.852;7.102;2023-02-01T13:23:49;7.82;;;2.15;;
10801;SDS011;5453;50.852;7.102;2023-02-01T13:26:23;7.30;;;1.80;;
10801;SDS011;5453;50.852;7.102;2023-02-01T13:28:56;8.90;;;1.90;;
10801;SDS011;5453;50.852;7.102;2023-02-01T13:31:53;8.20;;;1.95;;
10801;SDS011;5453;50.852;7.102;2023-02-01T13:34:58;5.72;;;2.00;;
10801;SDS011;5453;50.852;7.102;2023-02-01T13:40:46;10.90;;;2.05;;
10801;SDS011;5453;50.852;7.102;2023-02-01T13:43:26;6.95;;;1.70;;
10801;SDS011;5453;50.852;7.102;2023-02-01T13:46:03;10.88;;;1.75;;
10801;SDS011;5453;50.852;7.102;2023-02-01T13:48:38;4.00;;;1.35;;
10801;SDS011;5453;50.852;7.102;2023-02-01T13:51:28;6.78;;;1.95;;
10801;SDS011;5453;50.852;7.102;2023-02-01T13:54:22;8.23;;;2.42;;
10801;SDS011;5453;50.852;7.102;2023-02-01T13:57:02;8.00;;;1.98;;
10801;SDS011;5453;50.852;7.102;2023-02-01T13:59:49;5.43;;;1.50;;
10801;SDS011;5453;50.852;7.102;2023-02-01T14:09:14;8.23;;;1.65;;
10801;SDS011;5453;50.852;7.102;2023-02-01T14:11:49;5.45;;;1.73;;
10801;SDS011;5453;50.852;7.102;2023-02-01T14:23:18;7.75;;;2.13;;
10801;SDS011;5453;50.852;7.102;2023-02-01T14:26:05;9.30;;;1.90;;
10801;SDS011;5453;50.852;7.102;2023-02-01T14:31:58;7.97;;;1.63;;
10801;SDS011;5453;50.852;7.102;2023-02-01T14:34:37;9.20;;;2.40;;
10801;SDS011;5453;50.852;7.102;2023-02-01T14:37:23;8.07;;;2.08;;
10801;SDS011;5453;50.852;7.102;2023-02-01T14:40:00;7.65;;;2.03;;
10801;SDS011;5453;50.852;7.102;2023-02-01T14:42:37;9.15;;;1.77;;
10801;SDS011;5453;50.852;7.102;2023-02-01T14:51:17;7.53;;;1.52;;
10801;SDS011;5453;50.852;7.102;2023-02-01T14:53:50;9.02;;;1.92;;
10801;SDS011;5453;50.852;7.102;2023-02-01T14:56:24;6.88;;;1.70;;
10801;SDS011;5453;50.852;7.102;2023-02-01T15:01:35;10.57;;;1.92;;
10801;SDS011;5453;50.852;7.102;2023-02-01T15:04:10;12.50;;;1.75;;
10801;SDS011;5453;50.852;7.102;2023-02-01T15:06:46;7.65;;;2.08;;
10801;SDS011;5453;50.852;7.102;2023-02-01T15:09:24;8.00;;;1.73;;
10801;SDS011;5453;50.852;7.102;2023-02-01T15:12:01;8.25;;;2.40;;
10801;SDS011;5453;50.852;7.102;2023-02-01T15:14:37;8.75;;;1.90;;
10801;SDS011;5453;50.852;7.102;2023-02-01T15:17:17;7.72;;;1.77;;
10801;SDS011;5453;50.852;7.102;2023-02-01T15:19:53;7.53;;;1.70;;
10801;SDS011;5453;50.852;7.102;2023-02-01T15:22:30;7.57;;;2.00;;
10801;SDS011;5453;50.852;7.102;2023-02-01T15:25:03;6.90;;;2.58;;
10801;SDS011;5453;50.852;7.102;2023-02-01T15:27:37;8.35;;;2.30;;
10801;SDS011;5453;50.852;7.102;2023-02-01T15:30:16;6.85;;;1.95;;
10801;SDS011;5453;50.852;7.102;2023-02-01T15:32:52;10.40;;;2.15;;
10801;SDS011;5453;50.852;7.102;2023-02-01T15:35:39;7.88;;;1.60;;
10801;SDS011;5453;50.852;7.102;2023-02-01T15:38:20;8.70;;;1.73;;
10801;SDS011;5453;50.852;7.102;2023-02-01T15:41:05;6.53;;;1.70;;
10801;SDS011;5453;50.852;7.102;2023-02-01T15:43:46;4.45;;;1.50;;
10801;SDS011;5453;50.852;7.102;2023-02-01T15:46:36;9.52;;;2.08;;
10801;SDS011;5453;50.852;7.102;2023-02-01T15:49:17;7.57;;;2.00;;
10801;SDS011;5453;50.852;7.102;2023-02-01T15:51:58;6.28;;;1.33;;
10801;SDS011;5453;50.852;7.102;2023-02-01T15:54:32;7.43;;;1.88;;
10801;SDS011;5453;50.852;7.102;2023-02-01T15:57:18;9.77;;;1.83;;
10801;SDS011;5453;50.852;7.102;2023-02-01T15:59:54;8.40;;;2.30;;
10801;SDS011;5453;50.852;7.102;2023-02-01T16:02:29;5.88;;;1.45;;
10801;SDS011;5453;50.852;7.102;2023-02-01T16:05:25;12.27;;;1.70;;
10801;SDS011;5453;50.852;7.102;2023-02-01T16:08:04;8.02;;;2.03;;
10801;SDS011;5453;50.852;7.102;2023-02-01T16:10:43;7.22;;;1.80;;
10801;SDS011;5453;50.852;7.102;2023-02-01T16:13:18;7.63;;;1.65;;
10801;SDS011;5453;50.852;7.102;2023-02-01T16:15:53;4.93;;;1.65;;
10801;SDS011;5453;50.852;7.102;2023-02-01T16:18:25;7.63;;;1.90;;
10801;SDS011;5453;50.852;7.102;2023-02-01T16:20:57;10.00;;;2.25;;
10801;SDS011;5453;50.852;7.102;2023-02-01T16:23:29;9.73;;;2.10;;
10801;SDS011;5453;50.852;7.102;2023-02-01T16:26:01;5.25;;;2.05;;
10801;SDS011;5453;50.852;7.102;2023-02-01T16:28:33;8.68;;;2.17;;
10801;SDS011;5453;50.852;7.102;2023-02-01T16:31:09;4.90;;;1.88;;
10801;SDS011;5453;50.852;7.102;2023-02-01T16:33:49;6.00;;;1.88;;
10801;SDS011;5453;50.852;7.102;2023-02-01T16:36:22;11.35;;;2.50;;
10801;SDS011;5453;50.852;7.102;2023-02-01T16:38:57;5.78;;;1.95;;
10801;SDS011;5453;50.852;7.102;2023-02-01T16:41:32;5.20;;;1.77;;
10801;SDS011;5453;50.852;7.102;2023-02-01T16:44:05;6.65;;;1.73;;